Time;durP1;ratioP1;P1;durP2;ratioP2;P2;SDS_P1;SDS_P2;PMS_P1;PMS_P2;Temp;Humidity;BMP_temperature;BMP_pressure;BME280_temperature;BME280_humidity;BME280_pressure;Samples;Min_cycle;Max_cycle;Signal;HPM_P1;HPM_P2
2021/07/31 00:02:01;;;;;;;22.83;21.10;;;18.90;99.90;;;;;;4991320;28;20859;-70
2021/07/31 00:04:28;;;;;;;21.23;20.03;;;18.90;99.90;;;;;;4991081;28;20549;-70
2021/07/31 00:06:54;;;;;;;21.60;20.10;;;18.80;99.90;;;;;;4991199;28;20478;-70
2021/07/31 00:09:22;;;;;;;22.00;20.40;;;18.70;99.90;;;;;;4991028;28;20469;-69
2021/07/31 00:11:49;;;;;;;20.97;19.77;;;18.70;99.90;;;;;;4991350;28;20842;-70
2021/07/31 00:14:16;;;;;;;20.60;19.40;;;18.90;99.90;;;;;;4991061;28;20439;-70
2021/07/31 00:16:43;;;;;;;21.97;20.57;;;19.00;99.90;;;;;;4991152;28;20460;-70
2021/07/31 00:19:10;;;;;;;21.43;20.23;;;19.10;99.90;;;;;;4991102;28;20462;-70
2021/07/31 00:21:36;;;;;;;21.67;20.30;;;19.30;99.90;;;;;;4990923;28;20490;-70
2021/07/31 00:24:03;;;;;;;21.93;20.50;;;19.30;99.90;;;;;;4990592;28;20481;-70
2021/07/31 00:26:31;;;;;;;20.87;19.70;;;19.40;99.90;;;;;;4991083;28;21014;-69
2021/07/31 00:28:58;;;;;;;21.13;19.73;;;19.60;99.90;;;;;;4991041;28;20509;-68
2021/07/31 00:31:24;;;;;;;21.07;19.87;;;19.60;99.90;;;;;;4990906;28;20455;-69
2021/07/31 00:33:51;;;;;;;20.80;19.70;;;19.60;99.90;;;;;;4991101;28;20454;-68
2021/07/31 00:36:18;;;;;;;20.10;19.00;;;19.70;99.90;;;;;;4990746;28;20447;-69
2021/07/31 00:38:44;;;;;;;19.60;18.40;;;19.80;99.90;;;;;;4990805;28;20676;-70
2021/07/31 00:41:11;;;;;;;19.33;18.33;;;19.80;99.90;;;;;;4990875;28;20455;-70
2021/07/31 00:43:39;;;;;;;19.63;18.60;;;19.90;99.90;;;;;;4992298;28;20455;-71
2021/07/31 00:46:06;;;;;;;17.93;16.90;;;20.00;99.90;;;;;;4994360;28;20542;-70
2021/07/31 00:48:34;;;;;;;17.43;16.53;;;20.10;99.90;;;;;;4994154;28;20447;-69
2021/07/31 00:51:00;;;;;;;17.03;16.00;;;20.10;99.90;;;;;;4994337;28;20516;-69
2021/07/31 00:53:27;;;;;;;16.63;15.83;;;20.20;99.90;;;;;;4994186;28;20455;-69
2021/07/31 00:55:56;;;;;;;17.13;16.27;;;20.30;99.90;;;;;;4994339;28;20446;-69
2021/07/31 00:58:24;;;;;;;16.20;15.40;;;20.30;99.90;;;;;;4994308;28;20873;-69
2021/07/31 01:00:53;;;;;;;16.90;15.90;;;20.40;99.90;;;;;;4994292;28;20450;-68
2021/07/31 01:03:19;;;;;;;16.00;15.20;;;20.40;99.90;;;;;;4994712;28;20804;-69
2021/07/31 01:05:46;;;;;;;16.13;15.13;;;20.40;99.90;;;;;;4993900;28;21014;-69
2021/07/31 01:08:13;;;;;;;16.23;15.10;;;20.50;99.90;;;;;;4994206;28;20455;-69
2021/07/31 01:10:40;;;;;;;15.70;15.00;;;20.40;99.90;;;;;;4993846;28;20470;-69
2021/07/31 01:13:08;;;;;;;16.30;15.40;;;20.50;99.90;;;;;;4994287;28;20465;-69
2021/07/31 01:15:35;;;;;;;15.83;14.93;;;20.50;99.90;;;;;;4994236;28;20447;-69
2021/07/31 01:18:03;;;;;;;16.13;15.10;;;20.40;99.90;;;;;;4993613;28;20450;-70
2021/07/31 01:20:29;;;;;;;16.73;15.83;;;20.50;99.90;;;;;;4993518;28;20505;-70
2021/07/31 01:22:57;;;;;;;15.77;14.87;;;20.50;99.90;;;;;;4993657;28;20451;-69
2021/07/31 01:25:24;;;;;;;16.23;15.33;;;20.50;99.90;;;;;;4993734;28;20486;-69
2021/07/31 01:27:51;;;;;;;15.00;14.30;;;20.60;99.90;;;;;;4993869;28;20849;-70
2021/07/31 01:30:17;;;;;;;14.63;13.93;;;20.60;99.90;;;;;;4993871;28;20459;-70
2021/07/31 01:32:44;;;;;;;15.63;14.83;;;20.60;99.90;;;;;;4993705;28;20451;-70
2021/07/31 01:35:11;;;;;;;14.90;14.10;;;20.50;99.90;;;;;;4993543;28;20522;-69
2021/07/31 01:37:38;;;;;;;15.60;14.43;;;20.50;99.90;;;;;;4993535;28;20454;-69
2021/07/31 01:40:07;;;;;;;15.40;14.37;;;20.50;99.90;;;;;;4993491;28;20454;-69
2021/07/31 01:42:34;;;;;;;15.43;14.70;;;20.60;99.90;;;;;;4993637;28;20450;-70
2021/07/31 01:45:00;;;;;;;16.23;15.20;;;20.60;99.90;;;;;;4993224;28;20881;-70
2021/07/31 01:47:27;;;;;;;15.10;14.20;;;20.50;99.90;;;;;;4993432;28;20501;-70
2021/07/31 01:49:53;;;;;;;15.73;14.93;;;20.30;99.90;;;;;;4993172;28;20514;-70
2021/07/31 01:52:20;;;;;;;14.50;13.90;;;20.30;99.90;;;;;;4993347;28;20451;-69
2021/07/31 01:54:47;;;;;;;15.50;14.70;;;20.20;99.90;;;;;;4992889;28;20454;-69
2021/07/31 01:57:15;;;;;;;15.27;14.33;;;20.20;99.90;;;;;;4993117;28;20450;-70
2021/07/31 01:59:41;;;;;;;14.20;13.30;;;20.20;99.90;;;;;;4992826;28;20459;-71
2021/07/31 02:02:08;;;;;;;14.70;14.00;;;20.30;99.90;;;;;;4993146;28;20951;-70
2021/07/31 02:04:35;;;;;;;14.17;13.27;;;20.30;99.90;;;;;;4992990;28;20459;-70
2021/07/31 02:07:02;;;;;;;13.73;13.13;;;20.20;99.90;;;;;;4992844;28;20458;-70
2021/07/31 02:09:28;;;;;;;13.93;13.20;;;20.10;99.90;;;;;;4992881;28;20545;-70
2021/07/31 02:11:55;;;;;;;13.90;13.30;;;20.00;99.90;;;;;;4992889;28;20454;-70
2021/07/31 02:14:23;;;;;;;14.50;13.70;;;20.00;99.90;;;;;;4993038;28;20820;-70
2021/07/31 02:16:50;;;;;;;13.43;12.83;;;20.10;99.90;;;;;;4992631;28;20452;-71
2021/07/31 02:19:17;;;;;;;13.47;12.77;;;20.10;99.90;;;;;;4992563;28;20608;-71
2021/07/31 02:21:43;;;;;;;13.50;12.90;;;20.00;99.90;;;;;;4992550;28;20487;-71
2021/07/31 02:24:10;;;;;;;13.90;13.10;;;19.90;99.90;;;;;;4992450;28;20455;-69
2021/07/31 02:26:37;;;;;;;12.43;11.73;;;19.90;99.90;;;;;;4992293;28;20858;-69
2021/07/31 02:29:04;;;;;;;12.03;11.63;;;19.70;99.90;;;;;;4992838;28;20457;-70
2021/07/31 02:31:32;;;;;;;12.70;12.20;;;19.60;99.90;;;;;;4992523;28;20454;-70
2021/07/31 02:33:59;;;;;;;13.30;12.60;;;19.40;99.90;;;;;;4992447;28;20508;-70
2021/07/31 02:36:26;;;;;;;13.57;12.67;;;19.30;99.90;;;;;;4992318;28;20447;-69
2021/07/31 02:38:52;;;;;;;14.23;13.43;;;19.20;99.90;;;;;;4992320;28;20451;-69
2021/07/31 02:41:19;;;;;;;11.70;11.10;;;19.10;99.90;;;;;;4992576;28;20455;-69
2021/07/31 02:43:46;;;;;;;13.13;12.33;;;19.00;99.90;;;;;;4992294;28;20447;-69
2021/07/31 02:46:12;;;;;;;12.43;11.73;;;18.90;99.90;;;;;;4992119;28;20486;-69
2021/07/31 02:48:41;;;;;;;12.40;11.90;;;18.90;99.90;;;;;;4992103;28;20455;-68
2021/07/31 02:51:09;;;;;;;12.63;12.13;;;18.90;99.90;;;;;;4992341;28;20470;-68
2021/07/31 02:53:36;;;;;;;12.80;12.10;;;18.80;99.90;;;;;;4992265;28;20458;-68
2021/07/31 02:56:02;;;;;;;12.60;11.90;;;18.70;99.90;;;;;;4992018;28;20473;-68
2021/07/31 02:58:30;;;;;;;12.50;11.93;;;18.70;99.90;;;;;;4991968;28;20451;-68
2021/07/31 03:00:57;;;;;;;12.87;12.20;;;18.60;99.90;;;;;;4991983;28;20446;-67
2021/07/31 03:03:23;;;;;;;13.13;12.37;;;18.50;99.90;;;;;;4992108;28;20451;-68
2021/07/31 03:05:55;;;;;;;13.00;11.87;;;18.40;99.90;;;;;;4991266;28;21037;-68
2021/07/31 03:08:22;;;;;;;12.37;11.83;;;18.30;99.90;;;;;;4991737;28;20478;-69
2021/07/31 03:10:53;;;;;;;18.20;12.33;;;18.30;99.90;;;;;;4991742;28;20454;-68
2021/07/31 03:13:20;;;;;;;13.27;12.17;;;18.30;99.90;;;;;;4992163;28;20538;-69
2021/07/31 03:15:46;;;;;;;12.00;11.50;;;18.20;99.90;;;;;;4991622;28;20919;-68
2021/07/31 03:18:13;;;;;;;12.47;11.87;;;18.20;99.90;;;;;;4991537;28;20801;-68
2021/07/31 03:20:45;;;;;;;12.77;12.00;;;18.00;99.90;;;;;;4991275;28;20451;-68
2021/07/31 03:23:13;;;;;;;12.70;11.90;;;17.90;99.90;;;;;;4991610;28;20562;-68
2021/07/31 03:25:40;;;;;;;12.50;12.00;;;17.90;99.90;;;;;;4991540;28;20998;-69
2021/07/31 03:28:07;;;;;;;14.00;12.73;;;17.70;99.90;;;;;;4991810;28;20451;-69
2021/07/31 03:30:34;;;;;;;12.83;11.93;;;17.70;99.90;;;;;;4991353;28;20461;-69
2021/07/31 03:33:00;;;;;;;12.97;12.20;;;17.60;99.90;;;;;;4991388;28;20549;-69
2021/07/31 03:35:27;;;;;;;14.60;13.90;;;17.60;99.90;;;;;;4991491;28;20854;-69
2021/07/31 03:37:54;;;;;;;16.10;15.30;;;17.50;99.90;;;;;;4991557;28;20797;-69
2021/07/31 03:40:22;;;;;;;16.07;15.37;;;17.50;99.90;;;;;;4991569;28;20509;-69
2021/07/31 03:42:48;;;;;;;16.27;15.37;;;17.30;99.90;;;;;;4991486;28;20454;-69
2021/07/31 03:45:15;;;;;;;18.40;17.07;;;17.10;99.90;;;;;;4991043;28;20540;-68
2021/07/31 03:47:42;;;;;;;17.40;16.50;;;17.10;99.90;;;;;;4991090;28;20504;-68
2021/07/31 03:50:09;;;;;;;18.10;17.00;;;16.90;99.90;;;;;;4991633;28;20505;-69
2021/07/31 03:52:36;;;;;;;16.93;15.80;;;16.80;99.90;;;;;;4991579;28;20451;-69
2021/07/31 03:55:04;;;;;;;17.47;16.27;;;16.80;99.90;;;;;;4990899;28;20451;-68
2021/07/31 03:57:32;;;;;;;18.10;17.10;;;16.70;99.90;;;;;;4991094;28;20451;-69
2021/07/31 03:59:59;;;;;;;17.97;16.97;;;16.60;99.90;;;;;;4990931;28;20969;-68
2021/07/31 04:02:25;;;;;;;17.73;16.73;;;16.60;99.90;;;;;;4991145;28;20861;-68
2021/07/31 04:04:52;;;;;;;18.40;17.40;;;16.60;99.90;;;;;;4991490;28;20692;-68
2021/07/31 04:07:19;;;;;;;18.07;17.00;;;16.60;99.90;;;;;;4990767;28;20493;-68
2021/07/31 04:09:46;;;;;;;17.70;16.67;;;16.60;99.90;;;;;;4990826;28;20456;-68
2021/07/31 04:12:12;;;;;;;16.70;15.80;;;16.60;99.90;;;;;;4990910;28;20466;-68
2021/07/31 04:14:40;;;;;;;17.83;16.60;;;16.60;99.90;;;;;;4991317;28;20454;-68
2021/07/31 04:17:07;;;;;;;18.30;17.03;;;16.50;99.90;;;;;;4991473;28;20443;-68
2021/07/31 04:19:34;;;;;;;17.40;16.30;;;16.60;99.90;;;;;;4994867;28;20993;-68
2021/07/31 04:22:00;;;;;;;17.60;16.20;;;16.60;99.90;;;;;;4994567;28;20994;-68
2021/07/31 04:24:27;;;;;;;17.00;15.90;;;16.60;99.90;;;;;;4994724;28;20447;-68
2021/07/31 04:26:54;;;;;;;16.87;15.87;;;16.60;99.90;;;;;;4994780;28;20482;-69
2021/07/31 04:29:21;;;;;;;17.20;16.20;;;16.60;99.90;;;;;;4994504;28;20457;-68
2021/07/31 04:31:50;;;;;;;17.10;15.67;;;16.70;99.90;;;;;;4994490;28;20481;-67
2021/07/31 04:34:16;;;;;;;15.10;14.10;;;16.70;99.90;;;;;;4994702;28;20473;-67
2021/07/31 04:36:43;;;;;;;15.70;14.57;;;16.70;99.90;;;;;;4994421;28;20466;-69
2021/07/31 04:39:10;;;;;;;14.70;13.77;;;16.70;99.90;;;;;;4994515;28;20505;-69
2021/07/31 04:41:37;;;;;;;15.13;14.23;;;16.70;99.90;;;;;;4994741;28;20490;-69
2021/07/31 04:44:04;;;;;;;14.90;13.90;;;16.70;99.90;;;;;;4994275;28;20450;-70
2021/07/31 04:46:31;;;;;;;14.50;13.80;;;16.80;99.90;;;;;;4993976;28;20901;-70
2021/07/31 04:48:59;;;;;;;13.50;12.60;;;17.00;99.90;;;;;;4994314;28;20501;-70
2021/07/31 04:51:25;;;;;;;14.23;13.40;;;17.30;99.90;;;;;;4994177;28;20453;-70
2021/07/31 04:53:52;;;;;;;14.50;13.70;;;17.70;99.90;;;;;;4994231;28;20454;-69
2021/07/31 04:56:19;;;;;;;15.03;14.10;;;18.10;99.90;;;;;;4994069;28;20458;-68
2021/07/31 04:58:45;;;;;;;14.43;13.43;;;18.40;99.90;;;;;;4993652;28;20579;-70
2021/07/31 05:01:12;;;;;;;14.00;13.13;;;18.70;99.90;;;;;;4994137;28;20874;-69
2021/07/31 05:03:39;;;;;;;13.90;13.20;;;18.90;99.90;;;;;;4994054;28;20898;-70
2021/07/31 05:06:07;;;;;;;13.00;12.30;;;19.00;99.90;;;;;;4993798;28;20482;-69
2021/07/31 05:08:33;;;;;;;12.97;12.37;;;19.10;99.90;;;;;;4993988;28;20446;-70
2021/07/31 05:11:06;;;;;;;13.53;12.90;;;19.50;99.90;;;;;;4993745;28;20510;-70
2021/07/31 05:13:33;;;;;;;13.97;13.37;;;19.70;99.90;;;;;;4993747;28;20451;-69
2021/07/31 05:15:59;;;;;;;13.70;13.00;;;20.10;99.90;;;;;;4993463;28;20455;-70
2021/07/31 05:18:26;;;;;;;13.80;13.10;;;20.30;99.90;;;;;;4993517;28;20458;-68
2021/07/31 05:20:53;;;;;;;14.23;13.30;;;20.20;99.90;;;;;;4993534;28;20482;-70
2021/07/31 05:23:21;;;;;;;12.80;12.20;;;20.20;99.90;;;;;;4993514;28;20853;-70
2021/07/31 05:25:47;;;;;;;13.33;12.33;;;20.10;99.90;;;;;;4993493;28;20489;-69
2021/07/31 05:28:15;;;;;;;14.03;12.90;;;19.90;99.90;;;;;;4993424;28;20828;-70
2021/07/31 05:30:42;;;;;;;13.47;12.90;;;20.10;99.90;;;;;;4992727;28;20529;-71
2021/07/31 05:33:10;;;;;;;14.07;13.07;;;20.30;99.90;;;;;;4993650;28;20447;-70
2021/07/31 05:35:37;;;;;;;12.93;12.33;;;20.30;99.90;;;;;;4993467;28;20457;-70
2021/07/31 05:38:03;;;;;;;12.87;12.20;;;20.70;99.90;;;;;;4993487;28;20462;-70
2021/07/31 05:40:31;;;;;;;14.07;13.10;;;21.00;99.90;;;;;;4993096;28;20466;-70
2021/07/31 05:42:58;;;;;;;14.30;13.30;;;21.20;99.90;;;;;;4993212;28;20455;-70
2021/07/31 05:45:27;;;;;;;12.33;11.63;;;21.40;99.90;;;;;;4993275;28;20454;-70
2021/07/31 05:47:56;;;;;;;13.10;12.20;;;21.60;99.90;;;;;;4993348;28;20493;-69
2021/07/31 05:50:23;;;;;;;11.97;11.37;;;21.80;99.90;;;;;;4993191;28;20530;-70
2021/07/31 05:52:50;;;;;;;12.80;11.90;;;21.90;99.90;;;;;;4993254;28;20454;-71
2021/07/31 05:55:17;;;;;;;13.27;12.30;;;22.30;99.90;;;;;;4993141;28;20446;-71
2021/07/31 05:57:45;;;;;;;12.53;11.83;;;22.90;99.90;;;;;;4992995;28;20713;-71
2021/07/31 06:00:13;;;;;;;12.73;12.10;;;23.20;99.20;;;;;;4993043;28;20804;-70
2021/07/31 06:02:40;;;;;;;12.20;11.70;;;23.60;98.70;;;;;;4992607;28;20447;-70
2021/07/31 06:05:08;;;;;;;12.50;11.80;;;24.10;96.80;;;;;;4993013;28;20439;-72
2021/07/31 06:07:34;;;;;;;12.37;11.77;;;24.50;95.90;;;;;;4992547;28;20897;-71
2021/07/31 06:10:01;;;;;;;12.53;12.03;;;24.60;95.60;;;;;;4992512;28;20481;-72
2021/07/31 06:12:28;;;;;;;13.10;12.17;;;25.20;94.60;;;;;;4992359;28;20454;-71
2021/07/31 06:14:56;;;;;;;12.93;12.23;;;25.70;93.40;;;;;;4992813;28;20497;-71
2021/07/31 06:17:22;;;;;;;12.73;12.03;;;26.10;92.30;;;;;;4992686;28;20935;-71
2021/07/31 06:19:49;;;;;;;12.90;11.97;;;26.10;92.40;;;;;;4992496;28;20478;-72
2021/07/31 06:22:16;;;;;;;12.40;11.90;;;26.10;92.60;;;;;;4992220;28;20564;-71
2021/07/31 06:24:42;;;;;;;13.07;12.47;;;26.20;92.10;;;;;;4992344;28;20939;-71
2021/07/31 06:27:09;;;;;;;12.77;12.20;;;26.50;92.10;;;;;;4992524;28;21060;-71
2021/07/31 06:29:36;;;;;;;15.63;12.70;;;26.60;91.70;;;;;;4992948;28;20824;-70
2021/07/31 06:32:05;;;;;;;12.77;12.17;;;26.50;91.90;;;;;;4992598;28;20455;-73
2021/07/31 06:34:31;;;;;;;12.20;11.70;;;26.40;92.50;;;;;;4992343;28;20797;-70
2021/07/31 06:36:58;;;;;;;14.10;12.87;;;25.90;93.10;;;;;;4992400;28;20446;-71
2021/07/31 06:39:27;;;;;;;13.47;12.33;;;25.90;93.10;;;;;;4992721;28;20454;-71
2021/07/31 06:41:53;;;;;;;12.63;12.00;;;26.40;92.60;;;;;;4991663;28;20459;-71
2021/07/31 06:44:20;;;;;;;13.43;12.70;;;26.50;91.90;;;;;;4992664;28;20443;-71
2021/07/31 06:46:47;;;;;;;13.17;12.57;;;27.00;91.80;;;;;;4992322;28;20602;-71
2021/07/31 06:49:15;;;;;;;12.13;11.73;;;27.40;90.90;;;;;;4992142;28;20458;-71
2021/07/31 06:51:41;;;;;;;11.97;11.47;;;27.80;88.90;;;;;;4992265;28;20451;-73
2021/07/31 06:54:08;;;;;;;13.07;12.43;;;27.90;88.00;;;;;;4992500;28;20447;-72
2021/07/31 06:56:36;;;;;;;13.07;12.50;;;28.30;88.20;;;;;;4992025;28;20951;-71
2021/07/31 06:59:02;;;;;;;12.40;11.80;;;28.50;85.00;;;;;;4992060;28;20478;-71
2021/07/31 07:01:29;;;;;;;13.90;12.93;;;28.50;85.70;;;;;;4991974;28;20486;-71
2021/07/31 07:03:56;;;;;;;13.50;12.60;;;28.90;80.50;;;;;;4991928;28;20969;-72
2021/07/31 07:06:24;;;;;;;13.97;13.20;;;29.20;81.20;;;;;;4992400;28;20490;-72
2021/07/31 07:08:51;;;;;;;13.40;12.70;;;29.70;78.60;;;;;;4991799;28;20861;-70
2021/07/31 07:11:18;;;;;;;12.97;12.40;;;29.90;75.00;;;;;;4991637;28;20459;-72
2021/07/31 07:13:45;;;;;;;13.37;12.47;;;29.70;75.80;;;;;;4991749;28;20966;-71
2021/07/31 07:16:11;;;;;;;12.87;12.37;;;29.80;75.50;;;;;;4991905;28;20455;-70
2021/07/31 07:18:38;;;;;;;13.10;12.50;;;30.00;73.70;;;;;;4992096;28;20877;-70
2021/07/31 07:21:06;;;;;;;13.10;12.30;;;30.00;72.40;;;;;;4991589;28;20482;-70
2021/07/31 07:23:34;;;;;;;13.23;12.53;;;29.60;73.90;;;;;;4991766;28;20451;-70
2021/07/31 07:26:01;;;;;;;13.63;12.90;;;30.10;72.00;;;;;;4991756;28;21074;-71
2021/07/31 07:28:28;;;;;;;12.37;11.70;;;29.50;71.80;;;;;;4991893;28;20577;-71
2021/07/31 07:30:56;;;;;;;12.23;11.73;;;29.80;73.00;;;;;;4991881;28;20466;-72
2021/07/31 07:33:22;;;;;;;12.00;11.50;;;30.10;73.60;;;;;;4991863;28;20813;-72
2021/07/31 07:35:51;;;;;;;12.10;11.50;;;30.70;70.70;;;;;;4991919;28;20893;-71
2021/07/31 07:38:17;;;;;;;12.47;11.63;;;30.70;69.50;;;;;;4991607;28;20553;-71
2021/07/31 07:40:46;;;;;;;12.37;11.70;;;30.60;68.40;;;;;;4991357;28;20505;-70
2021/07/31 07:43:13;;;;;;;12.33;11.83;;;30.80;67.40;;;;;;4991522;28;20873;-62
2021/07/31 07:45:39;;;;;;;13.17;12.57;;;31.10;67.30;;;;;;4991578;28;20542;-62
2021/07/31 07:48:06;;;;;;;13.47;12.90;;;30.90;66.60;;;;;;4991791;28;20923;-62
2021/07/31 07:50:34;;;;;;;12.80;12.30;;;31.50;65.70;;;;;;4991472;28;20574;-61
2021/07/31 07:53:01;;;;;;;13.00;12.30;;;30.70;65.70;;;;;;4995027;28;20907;-61
2021/07/31 07:55:27;;;;;;;13.00;12.40;;;30.40;67.80;;;;;;4996126;28;20542;-66
2021/07/31 07:57:55;;;;;;;13.47;12.73;;;30.50;67.70;;;;;;4998278;28;20454;-66
2021/07/31 08:00:22;;;;;;;13.13;12.50;;;30.80;67.20;;;;;;4997750;28;20517;-65
2021/07/31 08:02:49;;;;;;;13.33;12.53;;;30.50;67.60;;;;;;4998194;28;20943;-66
2021/07/31 08:05:15;;;;;;;12.83;12.10;;;30.10;68.20;;;;;;4998173;28;20529;-66
2021/07/31 08:07:43;;;;;;;12.87;12.07;;;30.10;67.80;;;;;;4998144;28;20490;-66
2021/07/31 08:10:11;;;;;;;12.60;11.90;;;29.70;69.90;;;;;;4997912;28;20832;-66
2021/07/31 08:12:38;;;;;;;11.60;11.10;;;30.50;68.20;;;;;;4996347;28;20454;-66
2021/07/31 08:15:06;;;;;;;11.93;11.43;;;30.50;67.50;;;;;;4996398;28;20501;-67
2021/07/31 08:17:33;;;;;;;13.17;12.00;;;30.30;66.80;;;;;;4997960;28;20533;-67
2021/07/31 08:20:00;;;;;;;12.47;11.50;;;30.10;67.00;;;;;;4998114;28;20544;-66
2021/07/31 08:22:27;;;;;;;11.60;11.00;;;29.20;69.50;;;;;;4997653;28;20581;-66
2021/07/31 08:24:54;;;;;;;11.50;11.00;;;28.70;69.50;;;;;;5000167;28;21027;-65
2021/07/31 08:27:21;;;;;;;12.73;12.23;;;29.20;69.20;;;;;;5008655;28;20485;-65
2021/07/31 08:29:48;;;;;;;12.37;11.70;;;30.00;66.90;;;;;;5005337;28;20497;-65
2021/07/31 08:32:15;;;;;;;11.90;11.40;;;30.40;65.90;;;;;;4997831;28;20454;-65
2021/07/31 08:34:42;;;;;;;12.80;12.20;;;30.40;64.60;;;;;;5015280;28;20453;-65
2021/07/31 08:37:10;;;;;;;12.60;12.03;;;29.70;67.30;;;;;;5017099;28;20527;-65
2021/07/31 08:39:38;;;;;;;11.50;11.00;;;28.10;69.80;;;;;;5017467;28;20471;-65
2021/07/31 08:42:05;;;;;;;11.80;11.20;;;27.50;72.30;;;;;;5009357;28;20553;-66
2021/07/31 08:44:34;;;;;;;11.97;11.37;;;27.80;71.60;;;;;;4997890;28;20513;-66
2021/07/31 08:47:04;;;;;;;12.23;11.60;;;29.00;70.20;;;;;;4997595;28;21125;-66
2021/07/31 08:49:34;;;;;;;12.60;11.90;;;30.20;65.70;;;;;;4997971;28;20486;-66
2021/07/31 08:52:02;;;;;;;12.07;11.47;;;30.60;63.60;;;;;;4997288;28;20532;-65
2021/07/31 08:54:29;;;;;;;12.90;12.30;;;30.30;64.50;;;;;;4997720;28;20990;-66
2021/07/31 08:56:56;;;;;;;12.27;11.67;;;30.90;62.60;;;;;;4997630;28;20450;-66
2021/07/31 08:59:25;;;;;;;11.90;11.30;;;31.20;62.60;;;;;;5007513;28;20453;-66
2021/07/31 09:01:52;;;;;;;11.63;11.00;;;30.70;63.30;;;;;;5017404;28;20536;-66
2021/07/31 09:04:19;;;;;;;12.40;11.90;;;30.70;63.90;;;;;;5013963;28;20437;-66
2021/07/31 09:06:47;;;;;;;12.70;12.10;;;31.00;64.30;;;;;;5013897;28;20507;-66
2021/07/31 09:09:14;;;;;;;12.30;11.77;;;31.50;62.50;;;;;;5014040;28;20458;-66
2021/07/31 09:11:58;;;;;;;12.40;11.80;;;31.80;61.10;;;;;;5013868;28;20454;-66
2021/07/31 09:14:26;;;;;;;12.03;11.53;;;32.50;59.80;;;;;;5013796;28;20565;-67
2021/07/31 09:16:53;;;;;;;13.10;12.40;;;33.00;57.10;;;;;;5014027;28;20848;-67
2021/07/31 09:19:20;;;;;;;12.73;12.13;;;33.30;57.40;;;;;;5013947;28;20864;-67
2021/07/31 09:21:50;;;;;;;13.20;12.20;;;33.40;57.20;;;;;;5013622;28;20520;-66
2021/07/31 09:24:20;;;;;;;12.90;12.30;;;32.10;58.30;;;;;;5014042;28;20453;-67
2021/07/31 09:26:49;;;;;;;12.93;12.37;;;31.90;59.80;;;;;;5013595;28;20458;-65
2021/07/31 09:29:18;;;;;;;12.80;12.20;;;31.70;59.60;;;;;;5013510;28;20500;-66
2021/07/31 09:31:55;;;;;;;12.83;12.10;;;31.50;59.70;;;;;;5011739;28;20500;-65
2021/07/31 09:34:31;;;;;;;12.83;12.33;;;32.10;59.20;;;;;;5013379;28;20458;-65
2021/07/31 09:37:10;;;;;;;13.33;12.63;;;32.70;58.40;;;;;;5013156;28;20465;-65
2021/07/31 09:39:52;;;;;;;13.00;12.40;;;32.70;57.10;;;;;;5013196;28;20549;-67
2021/07/31 09:42:33;;;;;;;12.10;11.60;;;32.30;57.90;;;;;;5013181;28;20489;-73
2021/07/31 09:45:01;;;;;;;13.67;12.97;;;31.50;59.20;;;;;;5013364;28;20453;-72
2021/07/31 09:47:28;;;;;;;13.03;12.50;;;30.80;60.10;;;;;;5012950;28;20842;-71
2021/07/31 09:49:57;;;;;;;12.70;11.90;;;30.30;60.70;;;;;;5012957;28;20450;-72
2021/07/31 09:52:27;;;;;;;13.40;12.70;;;31.10;60.50;;;;;;5012719;28;20462;-71
2021/07/31 09:54:56;;;;;;;14.30;13.80;;;32.40;57.80;;;;;;5013008;28;20454;-72
2021/07/31 09:57:25;;;;;;;13.07;12.57;;;32.40;57.60;;;;;;5013042;28;20454;-72
2021/07/31 09:59:54;;;;;;;13.53;12.73;;;31.80;57.80;;;;;;5012975;28;20454;-71
2021/07/31 10:02:22;;;;;;;12.63;12.03;;;30.50;59.60;;;;;;5012870;28;20472;-71
2021/07/31 10:04:50;;;;;;;12.93;12.13;;;29.80;61.80;;;;;;5012730;28;20450;-71
2021/07/31 10:07:19;;;;;;;13.40;12.60;;;30.10;62.20;;;;;;5012556;28;20492;-72
2021/07/31 10:09:50;;;;;;;12.80;12.30;;;30.70;61.10;;;;;;5011043;28;20454;-71
2021/07/31 10:12:18;;;;;;;14.07;13.37;;;31.50;59.10;;;;;;5008211;28;20453;-72
2021/07/31 10:14:46;;;;;;;13.33;12.73;;;32.10;58.10;;;;;;5012331;28;20877;-72
2021/07/31 10:17:14;;;;;;;13.60;13.00;;;32.20;58.00;;;;;;5012522;28;20450;-71
2021/07/31 10:19:42;;;;;;;12.60;12.10;;;30.70;60.00;;;;;;5012580;28;20531;-71
2021/07/31 10:22:10;;;;;;;12.93;12.43;;;30.40;62.10;;;;;;5012107;28;20536;-72
2021/07/31 10:25:09;;;;;;;13.23;12.53;;;31.30;59.90;;;;;;5012425;28;20473;-72
2021/07/31 10:27:36;;;;;;;13.10;12.60;;;32.70;57.90;;;;;;4990500;28;20470;-72
2021/07/31 10:30:06;;;;;;;12.53;12.10;;;33.50;54.60;;;;;;5007385;28;20446;-72
2021/07/31 10:32:40;;;;;;;13.30;12.80;;;34.10;52.30;;;;;;5012143;28;20457;-72
2021/07/31 10:35:21;;;;;;;12.90;12.40;;;33.90;51.80;;;;;;5012191;28;20458;-71
2021/07/31 10:37:48;;;;;;;13.20;12.60;;;34.00;51.50;;;;;;5011998;28;20454;-71
2021/07/31 10:40:56;;;;;;;14.90;13.90;;;34.20;51.90;;;;;;5012010;28;20485;-72
2021/07/31 10:43:27;;;;;;;13.93;13.43;;;34.00;51.50;;;;;;5012121;28;20973;-72
2021/07/31 10:46:22;;;;;;;14.50;13.87;;;34.50;50.70;;;;;;5012036;28;20552;-71
2021/07/31 10:48:49;;;;;;;13.37;12.87;;;34.20;51.10;;;;;;5008242;28;20494;-73
2021/07/31 10:51:41;;;;;;;13.77;13.03;;;34.60;50.60;;;;;;5011270;28;21164;-72
2021/07/31 10:54:08;;;;;;;12.77;12.27;;;34.20;50.50;;;;;;5012316;28;20553;-73
2021/07/31 10:56:55;;;;;;;13.60;13.10;;;34.30;50.10;;;;;;5012016;28;20465;-72
2021/07/31 10:59:23;;;;;;;13.83;13.10;;;35.60;48.50;;;;;;5012054;28;20438;-72
2021/07/31 11:01:50;;;;;;;13.50;12.93;;;35.90;46.80;;;;;;5011788;28;20446;-72
2021/07/31 11:04:53;;;;;;;13.93;13.30;;;35.60;46.70;;;;;;5011782;28;20454;-72
2021/07/31 11:07:25;;;;;;;13.10;12.70;;;34.50;48.10;;;;;;5011710;28;20968;-72
2021/07/31 11:10:29;;;;;;;13.13;12.60;;;32.20;50.60;;;;;;5011753;28;20512;-72
2021/07/31 11:12:56;;;;;;;12.20;11.40;;;31.60;52.40;;;;;;5011543;28;20489;-72
2021/07/31 11:15:24;;;;;;;14.13;13.60;;;32.20;51.20;;;;;;5011745;28;20461;-72
2021/07/31 11:17:56;;;;;;;13.27;12.70;;;33.50;49.70;;;;;;5011717;28;20450;-72
2021/07/31 11:20:28;;;;;;;13.40;12.83;;;33.80;48.80;;;;;;5011452;28;20972;-72
2021/07/31 11:22:56;;;;;;;13.20;12.70;;;33.70;49.70;;;;;;5011459;28;20528;-73
2021/07/31 11:25:23;;;;;;;13.50;12.90;;;34.70;47.70;;;;;;5011642;28;20965;-72
2021/07/31 11:27:58;;;;;;;14.00;13.40;;;35.30;46.40;;;;;;5010988;28;20489;-73
2021/07/31 11:30:44;;;;;;;14.30;13.70;;;36.20;45.60;;;;;;5011464;28;20452;-72
2021/07/31 11:33:20;;;;;;;13.30;12.70;;;35.60;45.70;;;;;;5011323;28;20442;-73
2021/07/31 11:35:48;;;;;;;13.80;13.27;;;35.40;45.90;;;;;;5011188;28;20453;-73
2021/07/31 11:38:33;;;;;;;13.90;13.30;;;35.70;45.40;;;;;;5011245;28;20442;-70
2021/07/31 11:41:02;;;;;;;13.83;13.33;;;35.70;43.40;;;;;;5011318;28;20507;-70
2021/07/31 11:43:29;;;;;;;13.90;13.40;;;35.30;43.60;;;;;;5011082;28;20456;-70
2021/07/31 11:45:57;;;;;;;14.60;14.00;;;35.80;43.90;;;;;;5011211;28;20461;-71
2021/07/31 11:48:24;;;;;;;14.00;13.50;;;36.40;42.80;;;;;;5011369;28;21065;-70
2021/07/31 11:51:04;;;;;;;13.60;13.00;;;35.80;42.30;;;;;;5011199;28;20458;-73
2021/07/31 11:53:31;;;;;;;13.63;13.13;;;34.00;45.80;;;;;;5011093;28;21075;-73
2021/07/31 11:56:11;;;;;;;12.83;12.40;;;32.70;46.60;;;;;;5011043;28;20476;-72
2021/07/31 11:58:41;;;;;;;14.13;13.50;;;33.20;47.80;;;;;;5011298;28;20533;-73
2021/07/31 12:01:09;;;;;;;13.23;12.73;;;32.70;48.20;;;;;;5011231;28;20454;-73
2021/07/31 12:03:40;;;;;;;14.20;13.50;;;31.40;50.80;;;;;;5011099;28;20943;-73
2021/07/31 12:06:07;;;;;;;13.57;12.97;;;31.80;50.70;;;;;;5011031;28;20485;-72
2021/07/31 12:08:45;;;;;;;12.80;12.30;;;32.40;49.60;;;;;;5010898;28;20478;-72
2021/07/31 12:11:12;;;;;;;14.20;13.40;;;32.70;48.50;;;;;;5010961;28;20445;-73
2021/07/31 12:13:38;;;;;;;13.77;13.17;;;33.00;47.70;;;;;;5011025;28;20449;-73
2021/07/31 12:16:05;;;;;;;13.10;12.60;;;32.90;47.30;;;;;;5010941;28;20516;-73
2021/07/31 12:18:51;;;;;;;14.53;13.93;;;32.90;47.60;;;;;;5010583;28;20470;-72
2021/07/31 12:21:26;;;;;;;13.23;12.70;;;33.20;47.70;;;;;;5010507;28;21011;-72
2021/07/31 12:23:52;;;;;;;13.90;13.10;;;32.50;47.90;;;;;;5011068;28;20449;-72
2021/07/31 12:26:30;;;;;;;12.87;12.47;;;32.70;48.40;;;;;;5010841;28;20508;-72
2021/07/31 12:28:57;;;;;;;13.87;13.30;;;33.30;47.50;;;;;;5010767;28;20485;-72
2021/07/31 12:31:25;;;;;;;13.40;12.90;;;33.40;47.20;;;;;;5010895;28;20457;-72
2021/07/31 12:33:54;;;;;;;14.20;13.40;;;32.30;48.50;;;;;;5010969;28;20460;-72
2021/07/31 12:36:21;;;;;;;13.93;13.33;;;32.30;48.70;;;;;;5010761;28;20520;-71